sensor_id;sensor_type;location;lat;lon;timestamp;pressure;altitude;pressure_sealevel;temperature;humidity
36304;BME280;22335;49.800;8.596;2023-04-03T00:02:51;101559.63;;;10.58;47.27
36304;BME280;22335;49.800;8.596;2023-04-03T00:09:35;101556.19;;;10.68;48.08
36304;BME280;22335;49.800;8.596;2023-04-03T00:16:20;101555.13;;;10.69;48.09
36304;BME280;22335;49.800;8.596;2023-04-03T00:23:03;101563.34;;;10.74;48.27
36304;BME280;22335;49.800;8.596;2023-04-03T00:29:46;101557.06;;;10.74;47.98
36304;BME280;22335;49.800;8.596;2023-04-03T00:36:31;101557.28;;;10.67;48.29
36304;BME280;22335;49.800;8.596;2023-04-03T00:43:17;101491.28;;;10.31;47.56
36304;BME280;22335;49.800;8.596;2023-04-03T00:50:02;101575.91;;;10.70;47.91
36304;BME280;22335;49.800;8.596;2023-04-03T00:56:48;101574.19;;;10.64;47.74
36304;BME280;22335;49.800;8.596;2023-04-03T01:03:34;101573.69;;;10.67;47.55
36304;BME280;22335;49.800;8.596;2023-04-03T01:10:20;101577.50;;;10.66;47.69
36304;BME280;22335;49.800;8.596;2023-04-03T01:17:26;101566.50;;;10.61;47.88
36304;BME280;22335;49.800;8.596;2023-04-03T01:24:25;101517.94;;;10.24;47.61
36304;BME280;22335;49.800;8.596;2023-04-03T01:31:19;101563.78;;;10.61;47.82
36304;BME280;22335;49.800;8.596;2023-04-03T01:38:07;101570.38;;;10.65;47.70
36304;BME280;22335;49.800;8.596;2023-04-03T01:44:51;101571.09;;;10.55;47.75
36304;BME280;22335;49.800;8.596;2023-04-03T01:51:35;101579.78;;;10.47;47.89
36304;BME280;22335;49.800;8.596;2023-04-03T01:58:20;101522.34;;;10.03;48.31
36304;BME280;22335;49.800;8.596;2023-04-03T02:05:06;101571.13;;;10.33;48.49
36304;BME280;22335;49.800;8.596;2023-04-03T02:11:50;101579.53;;;10.27;48.49
36304;BME280;22335;49.800;8.596;2023-04-03T02:18:35;101576.69;;;10.22;48.85
36304;BME280;22335;49.800;8.596;2023-04-03T02:25:19;101576.19;;;10.25;48.38
36304;BME280;22335;49.800;8.596;2023-04-03T02:32:03;101580.81;;;10.24;48.15
36304;BME280;22335;49.800;8.596;2023-04-03T02:38:49;101566.06;;;10.03;48.54
36304;BME280;22335;49.800;8.596;2023-04-03T03:00:37;101568.44;;;9.95;48.40
36304;BME280;22335;49.800;8.596;2023-04-03T03:07:21;101568.34;;;9.89;48.54
36304;BME280;22335;49.800;8.596;2023-04-03T03:14:05;101570.50;;;9.87;48.43
36304;BME280;22335;49.800;8.596;2023-04-03T03:20:52;101563.78;;;9.73;48.63
36304;BME280;22335;49.800;8.596;2023-04-03T03:27:35;101565.84;;;9.66;48.67
36304;BME280;22335;49.800;8.596;2023-04-03T03:34:19;101569.34;;;9.61;48.97
36304;BME280;22335;49.800;8.596;2023-04-03T03:41:04;101552.41;;;9.42;48.80
36304;BME280;22335;49.800;8.596;2023-04-03T03:47:49;101568.44;;;9.56;49.19
36304;BME280;22335;49.800;8.596;2023-04-03T03:54:32;101576.44;;;9.62;48.75
36304;BME280;22335;49.800;8.596;2023-04-03T04:01:17;101576.72;;;9.61;48.75
36304;BME280;22335;49.800;8.596;2023-04-03T04:08:03;101584.91;;;9.61;48.48
36304;BME280;22335;49.800;8.596;2023-04-03T04:14:47;101573.31;;;9.54;48.73
36304;BME280;22335;49.800;8.596;2023-04-03T04:21:32;101579.53;;;9.49;49.13
36304;BME280;22335;49.800;8.596;2023-04-03T04:28:16;101581.44;;;9.49;48.76
36304;BME280;22335;49.800;8.596;2023-04-03T04:35:03;101560.31;;;9.44;49.45
36304;BME280;22335;49.800;8.596;2023-04-03T04:41:51;101583.59;;;9.46;49.62
36304;BME280;22335;49.800;8.596;2023-04-03T04:48:35;101573.25;;;9.49;48.99
36304;BME280;22335;49.800;8.596;2023-04-03T04:55:20;101575.88;;;9.43;49.30
36304;BME280;22335;49.800;8.596;2023-04-03T05:02:06;101543.47;;;9.13;49.58
36304;BME280;22335;49.800;8.596;2023-04-03T05:08:50;101584.03;;;9.38;49.73
36304;BME280;22335;49.800;8.596;2023-04-03T05:15:34;101592.34;;;9.32;49.59
36304;BME280;22335;49.800;8.596;2023-04-03T05:22:19;101600.56;;;9.15;49.92
36304;BME280;22335;49.800;8.596;2023-04-03T05:29:06;101612.94;;;9.06;49.91
36304;BME280;22335;49.800;8.596;2023-04-03T05:35:49;101618.22;;;8.95;51.02
36304;BME280;22335;49.800;8.596;2023-04-03T05:42:39;101622.44;;;8.86;50.53
36304;BME280;22335;49.800;8.596;2023-04-03T05:49:23;101621.66;;;8.74;51.37
36304;BME280;22335;49.800;8.596;2023-04-03T05:56:06;101621.06;;;8.72;51.09
36304;BME280;22335;49.800;8.596;2023-04-03T06:02:55;101639.47;;;8.65;51.19
36304;BME280;22335;49.800;8.596;2023-04-03T06:09:39;101581.25;;;8.30;51.19
36304;BME280;22335;49.800;8.596;2023-04-03T06:16:23;101644.94;;;8.65;51.44
36304;BME280;22335;49.800;8.596;2023-04-03T06:23:07;101652.06;;;8.54;51.66
36304;BME280;22335;49.800;8.596;2023-04-03T06:29:51;101654.44;;;8.50;51.09
36304;BME280;22335;49.800;8.596;2023-04-03T06:36:35;101664.19;;;8.46;51.30
36304;BME280;22335;49.800;8.596;2023-04-03T06:43:20;101674.00;;;8.36;51.34
36304;BME280;22335;49.800;8.596;2023-04-03T06:50:05;101677.97;;;8.40;51.83
36304;BME280;22335;49.800;8.596;2023-04-03T06:56:50;101679.59;;;8.29;51.52
36304;BME280;22335;49.800;8.596;2023-04-03T07:03:35;101680.91;;;8.38;51.01
36304;BME280;22335;49.800;8.596;2023-04-03T07:10:18;101689.53;;;8.59;51.36
36304;BME280;22335;49.800;8.596;2023-04-03T07:17:02;101697.28;;;8.78;50.61
36304;BME280;22335;49.800;8.596;2023-04-03T07:23:48;101636.66;;;8.48;50.83
36304;BME280;22335;49.800;8.596;2023-04-03T07:30:32;101703.66;;;8.96;49.96
36304;BME280;22335;49.800;8.596;2023-04-03T07:37:15;101708.97;;;9.19;49.76
36304;BME280;22335;49.800;8.596;2023-04-03T07:44:00;101706.53;;;9.35;48.62
36304;BME280;22335;49.800;8.596;2023-04-03T07:50:44;101715.16;;;9.43;47.91
36304;BME280;22335;49.800;8.596;2023-04-03T07:57:27;101708.06;;;9.59;46.74
36304;BME280;22335;49.800;8.596;2023-04-03T08:04:12;101713.22;;;9.73;47.10
36304;BME280;22335;49.800;8.596;2023-04-03T08:10:58;101718.91;;;9.54;45.56
36304;BME280;22335;49.800;8.596;2023-04-03T08:17:44;101724.78;;;9.63;45.95
36304;BME280;22335;49.800;8.596;2023-04-03T08:24:29;101724.47;;;9.76;44.14
36304;BME280;22335;49.800;8.596;2023-04-03T08:31:14;101712.63;;;9.70;44.27
36304;BME280;22335;49.800;8.596;2023-04-03T08:37:59;101720.22;;;9.68;43.79
36304;BME280;22335;49.800;8.596;2023-04-03T08:44:48;101712.84;;;9.52;44.16
36304;BME280;22335;49.800;8.596;2023-04-03T08:51:38;101709.78;;;9.49;43.94
36304;BME280;22335;49.800;8.596;2023-04-03T08:58:24;101721.03;;;9.35;44.31
36304;BME280;22335;49.800;8.596;2023-04-03T09:05:12;101719.13;;;9.36;45.25
36304;BME280;22335;49.800;8.596;2023-04-03T09:12:02;101714.75;;;9.52;44.55
36304;BME280;22335;49.800;8.596;2023-04-03T09:18:54;101715.75;;;10.13;43.28
36304;BME280;22335;49.800;8.596;2023-04-03T09:25:45;101703.38;;;10.44;42.44
36304;BME280;22335;49.800;8.596;2023-04-03T09:32:31;101683.56;;;10.59;42.12
36304;BME280;22335;49.800;8.596;2023-04-03T09:39:18;101708.56;;;10.90;41.33
36304;BME280;22335;49.800;8.596;2023-04-03T09:46:23;101709.25;;;10.75;40.62
36304;BME280;22335;49.800;8.596;2023-04-03T09:53:27;101691.44;;;10.77;40.30
36304;BME280;22335;49.800;8.596;2023-04-03T10:00:20;101688.72;;;10.77;41.00
36304;BME280;22335;49.800;8.596;2023-04-03T10:07:33;101691.19;;;11.01;40.89
36304;BME280;22335;49.800;8.596;2023-04-03T10:14:18;101690.38;;;11.00;40.68
36304;BME280;22335;49.800;8.596;2023-04-03T10:21:06;101680.69;;;11.20;40.38
36304;BME280;22335;49.800;8.596;2023-04-03T10:27:57;101651.56;;;11.08;39.42
36304;BME280;22335;49.800;8.596;2023-04-03T10:34:44;101677.75;;;11.26;39.07
36304;BME280;22335;49.800;8.596;2023-04-03T10:41:52;101708.38;;;11.23;39.37
36304;BME280;22335;49.800;8.596;2023-04-03T10:49:05;101673.94;;;11.27;39.44
36304;BME280;22335;49.800;8.596;2023-04-03T10:56:00;101679.88;;;11.19;38.00
36304;BME280;22335;49.800;8.596;2023-04-03T11:02:51;101653.66;;;10.96;37.94
36304;BME280;22335;49.800;8.596;2023-04-03T11:09:40;101676.56;;;11.17;38.68
36304;BME280;22335;49.800;8.596;2023-04-03T11:16:27;101665.50;;;11.34;39.62
36304;BME280;22335;49.800;8.596;2023-04-03T11:23:16;101650.56;;;11.52;38.75
36304;BME280;22335;49.800;8.596;2023-04-03T11:30:11;101655.75;;;11.48;38.82
36304;BME280;22335;49.800;8.596;2023-04-03T11:37:00;101642.91;;;11.49;38.80
36304;BME280;22335;49.800;8.596;2023-04-03T11:43:56;101593.88;;;11.15;38.71
36304;BME280;22335;49.800;8.596;2023-04-03T11:50:45;101635.63;;;11.65;38.34
36304;BME280;22335;49.800;8.596;2023-04-03T11:58:03;101629.38;;;11.74;37.19
36304;BME280;22335;49.800;8.596;2023-04-03T12:05:26;101627.16;;;11.71;36.92
36304;BME280;22335;49.800;8.596;2023-04-03T12:19:56;101541.59;;;11.59;36.91
36304;BME280;22335;49.800;8.596;2023-04-03T12:26:42;101606.69;;;12.27;36.57
36304;BME280;22335;49.800;8.596;2023-04-03T12:33:42;101532.75;;;11.94;35.09
36304;BME280;22335;49.800;8.596;2023-04-03T12:40:43;101594.09;;;12.36;35.04
36304;BME280;22335;49.800;8.596;2023-04-03T12:47:35;101575.72;;;12.36;34.08
36304;BME280;22335;49.800;8.596;2023-04-03T12:54:26;101512.75;;;11.94;33.53
36304;BME280;22335;49.800;8.596;2023-04-03T13:01:15;101579.59;;;12.45;33.85
36304;BME280;22335;49.800;8.596;2023-04-03T13:08:03;101574.66;;;12.53;34.28
36304;BME280;22335;49.800;8.596;2023-04-03T13:14:55;101562.34;;;12.76;33.22
36304;BME280;22335;49.800;8.596;2023-04-03T13:21:39;101576.34;;;12.84;33.22
36304;BME280;22335;49.800;8.596;2023-04-03T13:28:24;101505.75;;;12.34;32.14
36304;BME280;22335;49.800;8.596;2023-04-03T13:35:26;101561.75;;;12.53;31.50
36304;BME280;22335;49.800;8.596;2023-04-03T13:42:23;101531.53;;;12.33;31.18
36304;BME280;22335;49.800;8.596;2023-04-03T13:49:18;101558.50;;;12.61;31.46
36304;BME280;22335;49.800;8.596;2023-04-03T13:56:13;101556.31;;;12.79;31.14
36304;BME280;22335;49.800;8.596;2023-04-03T14:03:01;101544.78;;;12.77;31.35
36304;BME280;22335;49.800;8.596;2023-04-03T14:09:46;101489.31;;;12.39;30.65
36304;BME280;22335;49.800;8.596;2023-04-03T14:16:36;101536.84;;;12.80;29.69
36304;BME280;22335;49.800;8.596;2023-04-03T14:23:21;101529.97;;;12.98;30.31
36304;BME280;22335;49.800;8.596;2023-04-03T14:30:08;101536.81;;;13.16;30.74
36304;BME280;22335;49.800;8.596;2023-04-03T14:36:56;101504.16;;;13.20;31.34
36304;BME280;22335;49.800;8.596;2023-04-03T14:43:39;101488.78;;;13.13;31.22
36304;BME280;22335;49.800;8.596;2023-04-03T14:50:26;101499.78;;;13.29;31.11
36304;BME280;22335;49.800;8.596;2023-04-03T14:57:13;101508.00;;;13.03;30.57
36304;BME280;22335;49.800;8.596;2023-04-03T15:03:57;101498.13;;;13.07;31.60
36304;BME280;22335;49.800;8.596;2023-04-03T15:10:42;101500.03;;;13.27;31.78
36304;BME280;22335;49.800;8.596;2023-04-03T15:17:26;101503.31;;;13.14;31.15
36304;BME280;22335;49.800;8.596;2023-04-03T15:24:10;101498.94;;;13.03;31.09
36304;BME280;22335;49.800;8.596;2023-04-03T15:30:54;101502.25;;;12.95;30.96
36304;BME280;22335;49.800;8.596;2023-04-03T15:37:39;101503.63;;;12.92;31.06
36304;BME280;22335;49.800;8.596;2023-04-03T15:44:22;101501.97;;;13.01;31.38
36304;BME280;22335;49.800;8.596;2023-04-03T15:51:06;101494.25;;;13.03;31.26
36304;BME280;22335;49.800;8.596;2023-04-03T15:57:50;101494.28;;;12.98;31.44
36304;BME280;22335;49.800;8.596;2023-04-03T16:04:34;101498.13;;;12.92;31.43
36304;BME280;22335;49.800;8.596;2023-04-03T16:11:17;101486.31;;;12.86;31.69
36304;BME280;22335;49.800;8.596;2023-04-03T16:18:03;101482.19;;;12.89;31.79
36304;BME280;22335;49.800;8.596;2023-04-03T16:24:46;101503.06;;;12.75;31.61
36304;BME280;22335;49.800;8.596;2023-04-03T16:31:31;101504.97;;;12.69;31.76
36304;BME280;22335;49.800;8.596;2023-04-03T16:38:16;101501.16;;;12.70;32.02
36304;BME280;22335;49.800;8.596;2023-04-03T16:45:01;101314.13;;;11.44;31.81
36304;BME280;22335;49.800;8.596;2023-04-03T16:51:44;101499.72;;;12.47;32.11
36304;BME280;22335;49.800;8.596;2023-04-03T16:58:29;101505.44;;;12.35;32.30
36304;BME280;22335;49.800;8.596;2023-04-03T17:05:13;101510.38;;;12.28;32.46
36304;BME280;22335;49.800;8.596;2023-04-03T17:11:56;101512.22;;;12.07;32.55
36304;BME280;22335;49.800;8.596;2023-04-03T17:18:41;101473.94;;;11.70;32.61
36304;BME280;22335;49.800;8.596;2023-04-03T17:25:26;101511.59;;;11.85;32.80
36304;BME280;22335;49.800;8.596;2023-04-03T17:32:09;101527.38;;;11.67;33.16
36304;BME280;22335;49.800;8.596;2023-04-03T17:38:54;101521.31;;;11.60;33.48
36304;BME280;22335;49.800;8.596;2023-04-03T17:45:37;101534.44;;;11.53;33.85
36304;BME280;22335;49.800;8.596;2023-04-03T17:52:21;101542.34;;;11.49;33.70
36304;BME280;22335;49.800;8.596;2023-04-03T17:59:09;101555.13;;;11.39;33.40
36304;BME280;22335;49.800;8.596;2023-04-03T18:05:53;101500.66;;;11.00;33.70
36304;BME280;22335;49.800;8.596;2023-04-03T18:12:36;101562.78;;;11.31;33.59
36304;BME280;22335;49.800;8.596;2023-04-03T18:19:24;101563.28;;;11.28;33.54
36304;BME280;22335;49.800;8.596;2023-04-03T18:26:12;101571.75;;;11.27;33.68
36304;BME280;22335;49.800;8.596;2023-04-03T18:32:56;101516.88;;;10.79;33.93
36304;BME280;22335;49.800;8.596;2023-04-03T18:39:41;101573.19;;;11.02;33.83
36304;BME280;22335;49.800;8.596;2023-04-03T18:46:25;101587.09;;;10.96;33.84
36304;BME280;22335;49.800;8.596;2023-04-03T18:53:08;101580.28;;;10.71;33.92
36304;BME280;22335;49.800;8.596;2023-04-03T18:59:53;101546.78;;;10.32;33.88
36304;BME280;22335;49.800;8.596;2023-04-03T19:06:36;101599.16;;;10.46;34.08
36304;BME280;22335;49.800;8.596;2023-04-03T19:13:20;101602.69;;;10.24;34.32
36304;BME280;22335;49.800;8.596;2023-04-03T19:20:06;101619.81;;;10.14;34.27
36304;BME280;22335;49.800;8.596;2023-04-03T19:26:51;101629.59;;;10.10;34.41
36304;BME280;22335;49.800;8.596;2023-04-03T19:33:35;101589.41;;;9.72;34.48
36304;BME280;22335;49.800;8.596;2023-04-03T19:40:20;101632.53;;;9.87;34.77
36304;BME280;22335;49.800;8.596;2023-04-03T19:47:03;101625.66;;;9.84;34.57
36304;BME280;22335;49.800;8.596;2023-04-03T19:53:47;101634.28;;;9.93;34.53
36304;BME280;22335;49.800;8.596;2023-04-03T20:00:32;101646.59;;;9.96;34.84
36304;BME280;22335;49.800;8.596;2023-04-03T20:07:16;101642.78;;;9.97;34.70
36304;BME280;22335;49.800;8.596;2023-04-03T20:13:59;101645.16;;;9.88;35.00
36304;BME280;22335;49.800;8.596;2023-04-03T20:20:44;101650.63;;;9.71;35.24
36304;BME280;22335;49.800;8.596;2023-04-03T20:27:34;101647.63;;;9.56;35.81
36304;BME280;22335;49.800;8.596;2023-04-03T20:34:19;101615.13;;;9.20;35.39
36304;BME280;22335;49.800;8.596;2023-04-03T20:41:04;101633.25;;;9.27;35.36
36304;BME280;22335;49.800;8.596;2023-04-03T20:47:49;101644.13;;;9.10;35.52
36304;BME280;22335;49.800;8.596;2023-04-03T20:54:34;101658.41;;;9.00;36.09
36304;BME280;22335;49.800;8.596;2023-04-03T21:01:20;101659.06;;;8.90;36.46
36304;BME280;22335;49.800;8.596;2023-04-03T21:22:34;101647.69;;;8.53;35.72
36304;BME280;22335;49.800;8.596;2023-04-03T21:29:23;101653.16;;;8.41;35.75
36304;BME280;22335;49.800;8.596;2023-04-03T21:36:07;101659.31;;;8.37;36.60
36304;BME280;22335;49.800;8.596;2023-04-03T21:42:53;101620.25;;;7.96;36.54
36304;BME280;22335;49.800;8.596;2023-04-03T21:49:37;101657.22;;;8.03;36.53
36304;BME280;22335;49.800;8.596;2023-04-03T21:56:22;101652.38;;;7.94;37.45
36304;BME280;22335;49.800;8.596;2023-04-03T22:03:07;101648.94;;;7.86;37.59
36304;BME280;22335;49.800;8.596;2023-04-03T22:09:51;101643.03;;;7.78;37.97
36304;BME280;22335;49.800;8.596;2023-04-03T22:16:34;101641.00;;;7.61;37.67
36304;BME280;22335;49.800;8.596;2023-04-03T22:23:21;101637.81;;;7.53;37.97
36304;BME280;22335;49.800;8.596;2023-04-03T22:30:06;101636.50;;;7.44;37.87
36304;BME280;22335;49.800;8.596;2023-04-03T22:36:50;101639.44;;;7.42;38.21
36304;BME280;22335;49.800;8.596;2023-04-03T22:43:36;101642.50;;;7.34;38.55
36304;BME280;22335;49.800;8.596;2023-04-03T22:50:20;101660.63;;;7.28;38.28
36304;BME280;22335;49.800;8.596;2023-04-03T22:57:03;101636.13;;;7.28;38.32
36304;BME280;22335;49.800;8.596;2023-04-03T23:03:48;101638.59;;;7.30;38.60
36304;BME280;22335;49.800;8.596;2023-04-03T23:10:32;101635.50;;;7.26;38.93
36304;BME280;22335;49.800;8.596;2023-04-03T23:17:15;101631.38;;;7.24;38.80
36304;BME280;22335;49.800;8.596;2023-04-03T23:24:00;101637.28;;;7.21;39.13
36304;BME280;22335;49.800;8.596;2023-04-03T23:30:44;101639.63;;;7.17;39.11
36304;BME280;22335;49.800;8.596;2023-04-03T23:37:27;101659.50;;;7.18;38.77
36304;BME280;22335;49.800;8.596;2023-04-03T23:44:12;101651.13;;;7.19;38.77
36304;BME280;22335;49.800;8.596;2023-04-03T23:50:56;101650.31;;;7.19;39.18
36304;BME280;22335;49.800;8.596;2023-04-03T23:57:40;101647.94;;;7.22;39.17
